Time;durP1;ratioP1;P1;durP2;ratioP2;P2;SDS_P1;SDS_P2;PMS_P1;PMS_P2;Temp;Humidity;BMP_temperature;BMP_pressure;BME280_temperature;BME280_humidity;BME280_pressure;Samples;Min_cycle;Max_cycle;Signal;HPM_P1;HPM_P2
2022/11/03 00:01:11;;;;;;;12.07;3.50;;;;;;;;;;5075948;28;20575;-65
2022/11/03 00:03:39;;;;;;;8.87;2.83;;;;;;;;;;5076320;28;20859;-66
2022/11/03 00:06:06;;;;;;;8.60;2.70;;;;;;;;;;5076081;28;20445;-66
2022/11/03 00:08:34;;;;;;;5.20;2.90;;;;;;;;;;5076696;28;20503;-66
2022/11/03 00:11:09;;;;;;;12.53;2.97;;;;;;;;;;5075668;28;20448;-66
2022/11/03 00:13:37;;;;;;;8.63;2.63;;;;;;;;;;5076124;28;20566;-66
2022/11/03 00:16:04;;;;;;;6.53;3.10;;;;;;;;;;5075606;28;20441;-66
2022/11/03 00:18:33;;;;;;;7.83;3.33;;;;;;;;;;5075865;28;20445;-66
2022/11/03 00:21:01;;;;;;;9.13;2.80;;;;;;;;;;5075381;28;20946;-66
2022/11/03 00:23:30;;;;;;;6.73;2.83;;;;;;;;;;5075651;28;20568;-67
2022/11/03 00:26:03;;;;;;;11.17;2.97;;;;;;;;;;5074831;28;20442;-67
2022/11/03 00:28:31;;;;;;;17.60;3.50;;;;;;;;;;5075772;28;20426;-66
2022/11/03 00:30:58;;;;;;;8.80;2.77;;;;;;;;;;5075627;28;20895;-66
2022/11/03 00:33:26;;;;;;;7.10;3.27;;;;;;;;;;5075844;28;20475;-66
2022/11/03 00:35:58;;;;;;;8.80;3.20;;;;;;;;;;5075890;28;20821;-67
2022/11/03 00:38:25;;;;;;;9.07;3.43;;;;;;;;;;5075704;28;20424;-66
2022/11/03 00:40:56;;;;;;;6.77;2.70;;;;;;;;;;5075168;28;20476;-66
2022/11/03 00:43:23;;;;;;;10.73;2.60;;;;;;;;;;5075059;28;20447;-66
2022/11/03 00:45:51;;;;;;;11.70;3.00;;;;;;;;;;5074983;28;20448;-66
2022/11/03 00:48:31;;;;;;;10.90;3.03;;;;;;;;;;5075217;28;20480;-66
2022/11/03 00:51:10;;;;;;;8.20;3.10;;;;;;;;;;5075198;28;20831;-67
2022/11/03 00:53:38;;;;;;;10.70;3.17;;;;;;;;;;5075393;28;20866;-66
2022/11/03 00:56:06;;;;;;;14.70;4.50;;;;;;;;;;5074921;28;20801;-66
2022/11/03 00:58:33;;;;;;;6.87;2.90;;;;;;;;;;5074822;28;20444;-66
2022/11/03 01:01:01;;;;;;;10.43;3.23;;;;;;;;;;5074832;28;20476;-67
2022/11/03 01:03:28;;;;;;;6.50;2.90;;;;;;;;;;5074998;28;20436;-66
2022/11/03 01:08:41;;;;;;;12.27;2.83;;;;;;;;;;5075045;28;20760;-66
2022/11/03 01:13:54;;;;;;;4.90;2.50;;;;;;;;;;5074876;28;20466;-66
2022/11/03 01:16:21;;;;;;;4.97;2.17;;;;;;;;;;5074733;28;20444;-66
2022/11/03 01:18:49;;;;;;;8.10;2.83;;;;;;;;;;5074658;28;20444;-66
2022/11/03 01:21:16;;;;;;;11.67;3.00;;;;;;;;;;5074243;28;20570;-66
2022/11/03 01:23:45;;;;;;;12.13;3.10;;;;;;;;;;5074195;28;20479;-67
2022/11/03 01:26:13;;;;;;;12.80;3.37;;;;;;;;;;5074462;28;20436;-66
2022/11/03 01:28:40;;;;;;;7.67;2.57;;;;;;;;;;5074429;28;20437;-66
2022/11/03 01:31:08;;;;;;;8.00;2.87;;;;;;;;;;5074516;28;20462;-66
2022/11/03 01:33:36;;;;;;;9.33;2.93;;;;;;;;;;5074086;28;20447;-66
2022/11/03 01:36:03;;;;;;;10.20;3.00;;;;;;;;;;5074658;28;20449;-66
2022/11/03 01:38:32;;;;;;;7.97;3.53;;;;;;;;;;5073872;28;20448;-66
2022/11/03 01:41:00;;;;;;;9.70;3.27;;;;;;;;;;5074143;28;20483;-67
2022/11/03 01:43:30;;;;;;;6.00;2.87;;;;;;;;;;5074282;28;20535;-66
2022/11/03 01:46:02;;;;;;;5.20;2.50;;;;;;;;;;5073866;28;20513;-66
2022/11/03 01:48:30;;;;;;;8.57;3.03;;;;;;;;;;5074000;28;20435;-66
2022/11/03 01:50:57;;;;;;;8.20;3.20;;;;;;;;;;5074012;28;20450;-66
2022/11/03 01:53:24;;;;;;;11.00;3.90;;;;;;;;;;5074212;28;20311;-67
2022/11/03 01:55:52;;;;;;;8.17;2.47;;;;;;;;;;5074282;28;20437;-66
2022/11/03 01:58:22;;;;;;;7.43;3.63;;;;;;;;;;5074051;28;20444;-66
2022/11/03 02:00:51;;;;;;;10.50;2.80;;;;;;;;;;5074175;28;20461;-66
2022/11/03 02:03:19;;;;;;;8.80;3.13;;;;;;;;;;5073955;28;20754;-66
2022/11/03 02:05:46;;;;;;;12.67;2.90;;;;;;;;;;5073724;28;20444;-67
2022/11/03 02:08:16;;;;;;;5.70;2.97;;;;;;;;;;5073277;28;20444;-66
2022/11/03 02:10:44;;;;;;;12.73;5.10;;;;;;;;;;5074104;28;20436;-67
2022/11/03 02:13:16;;;;;;;15.70;4.17;;;;;;;;;;5073945;28;20861;-66
2022/11/03 02:15:45;;;;;;;12.83;3.30;;;;;;;;;;5073602;28;20531;-66
2022/11/03 02:18:12;;;;;;;7.83;3.53;;;;;;;;;;5073976;28;20440;-67
2022/11/03 02:20:40;;;;;;;6.13;2.90;;;;;;;;;;5073482;28;20436;-66
2022/11/03 02:23:15;;;;;;;8.50;3.07;;;;;;;;;;5072967;28;20499;-66
2022/11/03 02:25:44;;;;;;;13.00;3.10;;;;;;;;;;5074133;28;20420;-66
2022/11/03 02:28:12;;;;;;;11.23;3.60;;;;;;;;;;5073655;28;20447;-66
2022/11/03 02:30:42;;;;;;;8.90;3.20;;;;;;;;;;5073100;28;20444;-67
2022/11/03 02:33:14;;;;;;;10.90;3.60;;;;;;;;;;5073651;28;20440;-67
2022/11/03 02:35:43;;;;;;;10.37;3.53;;;;;;;;;;5073941;28;20435;-67
2022/11/03 02:38:13;;;;;;;9.70;3.43;;;;;;;;;;5073776;28;20443;-66
2022/11/03 02:40:44;;;;;;;11.40;3.37;;;;;;;;;;5073483;28;20445;-66
2022/11/03 02:43:14;;;;;;;5.67;2.93;;;;;;;;;;5073597;28;20772;-65
2022/11/03 02:45:42;;;;;;;7.20;3.23;;;;;;;;;;5073810;28;20431;-66
2022/11/03 02:48:10;;;;;;;20.73;4.57;;;;;;;;;;5072389;28;20451;-66
2022/11/03 02:50:37;;;;;;;8.77;3.78;;;;;;;;;;5073152;28;20440;-67
2022/11/03 02:53:04;;;;;;;11.15;3.33;;;;;;;;;;5072922;28;20198;-67
2022/11/03 02:55:35;;;;;;;18.47;4.03;;;;;;;;;;5073961;28;20196;-66
2022/11/03 02:58:06;;;;;;;11.70;3.20;;;;;;;;;;5072887;28;20425;-67
2022/11/03 03:00:39;;;;;;;15.17;3.60;;;;;;;;;;5072953;28;20433;-66
2022/11/03 03:03:09;;;;;;;4.23;3.07;;;;;;;;;;5073063;28;20472;-67
2022/11/03 03:05:37;;;;;;;7.67;3.30;;;;;;;;;;5073070;28;20440;-66
2022/11/03 03:08:06;;;;;;;9.47;3.63;;;;;;;;;;5072977;28;20448;-66
2022/11/03 03:10:36;;;;;;;5.70;2.70;;;;;;;;;;5073285;28;20458;-65
2022/11/03 03:13:04;;;;;;;10.47;3.70;;;;;;;;;;5072660;28;20960;-66
2022/11/03 03:15:36;;;;;;;5.90;2.90;;;;;;;;;;5073145;28;20462;-66
2022/11/03 03:18:11;;;;;;;4.60;2.70;;;;;;;;;;5072637;28;20905;-67
2022/11/03 03:20:42;;;;;;;9.10;3.00;;;;;;;;;;5072866;28;20890;-66
2022/11/03 03:23:12;;;;;;;8.30;3.10;;;;;;;;;;5072664;28;20541;-67
2022/11/03 03:25:41;;;;;;;10.07;3.43;;;;;;;;;;5072883;28;20435;-66
2022/11/03 03:28:10;;;;;;;8.00;3.03;;;;;;;;;;5072724;28;20451;-67
2022/11/03 03:30:38;;;;;;;10.30;4.30;;;;;;;;;;5072788;28;20449;-66
2022/11/03 03:33:07;;;;;;;10.53;4.37;;;;;;;;;;5073029;28;20914;-66
2022/11/03 03:35:36;;;;;;;8.67;3.47;;;;;;;;;;5072850;28;20445;-67
2022/11/03 03:38:05;;;;;;;9.70;3.40;;;;;;;;;;5072813;28;20448;-67
2022/11/03 03:40:34;;;;;;;7.07;3.00;;;;;;;;;;5072945;28;20440;-66
2022/11/03 03:43:02;;;;;;;11.40;3.30;;;;;;;;;;5072381;28;20953;-66
2022/11/03 03:45:31;;;;;;;8.93;3.07;;;;;;;;;;5072581;28;20475;-66
2022/11/03 03:47:58;;;;;;;6.80;3.27;;;;;;;;;;5072412;28;20513;-66
2022/11/03 03:50:28;;;;;;;9.20;3.00;;;;;;;;;;5072319;28;20937;-66
2022/11/03 03:52:56;;;;;;;12.47;3.13;;;;;;;;;;5073154;28;20939;-66
2022/11/03 03:55:27;;;;;;;8.80;4.13;;;;;;;;;;5072265;28;20951;-66
2022/11/03 03:57:54;;;;;;;14.80;3.47;;;;;;;;;;5073152;28;20433;-66
2022/11/03 04:00:21;;;;;;;8.60;2.97;;;;;;;;;;5072886;28;20444;-66
2022/11/03 04:02:48;;;;;;;13.70;3.90;;;;;;;;;;5075744;28;20472;-66
2022/11/03 04:05:16;;;;;;;17.07;3.57;;;;;;;;;;5076280;28;20448;-66
2022/11/03 04:07:47;;;;;;;9.80;3.70;;;;;;;;;;5076467;28;20436;-66
2022/11/03 04:10:14;;;;;;;14.23;3.47;;;;;;;;;;5075711;28;20440;-66
2022/11/03 04:23:50;;;;;;;8.83;3.07;;;;;;;;;;5052431;28;20460;-66
2022/11/03 04:26:18;;;;;;;5.43;2.83;;;;;;;;;;5075771;28;20450;-66
2022/11/03 04:28:46;;;;;;;11.10;3.90;;;;;;;;;;5075846;28;20798;-66
2022/11/03 04:31:13;;;;;;;7.27;3.90;;;;;;;;;;5075545;28;20542;-66
2022/11/03 04:33:41;;;;;;;10.37;3.80;;;;;;;;;;5075779;28;20496;-66
2022/11/03 04:36:11;;;;;;;9.97;3.10;;;;;;;;;;5075612;28;20449;-66
2022/11/03 04:38:39;;;;;;;8.13;3.27;;;;;;;;;;5075187;28;20812;-66
2022/11/03 04:41:13;;;;;;;7.30;2.97;;;;;;;;;;5075142;28;20456;-66
2022/11/03 04:43:40;;;;;;;7.60;3.70;;;;;;;;;;5075448;28;20424;-67
2022/11/03 04:46:09;;;;;;;8.20;3.00;;;;;;;;;;5075270;28;20452;-66
2022/11/03 04:48:37;;;;;;;9.10;3.30;;;;;;;;;;5075068;28;20942;-66
2022/11/03 04:51:11;;;;;;;9.77;3.10;;;;;;;;;;5074799;28;20453;-66
2022/11/03 04:53:39;;;;;;;8.53;2.97;;;;;;;;;;5075310;28;20488;-66
2022/11/03 04:56:14;;;;;;;5.83;3.07;;;;;;;;;;5075370;28;20529;-66
2022/11/03 04:58:41;;;;;;;11.37;3.73;;;;;;;;;;5074706;28;20436;-66
2022/11/03 05:01:10;;;;;;;8.10;3.13;;;;;;;;;;5074643;28;20451;-66
2022/11/03 05:03:38;;;;;;;13.87;3.73;;;;;;;;;;5074660;28;20484;-66
2022/11/03 05:06:10;;;;;;;10.33;3.53;;;;;;;;;;5074870;28;20462;-66
2022/11/03 05:08:37;;;;;;;13.00;3.57;;;;;;;;;;5075801;28;20433;-66
2022/11/03 05:11:12;;;;;;;10.57;3.80;;;;;;;;;;5074328;28;20519;-66
2022/11/03 05:13:41;;;;;;;5.00;2.50;;;;;;;;;;5075009;28;20795;-66
2022/11/03 05:16:09;;;;;;;11.20;3.10;;;;;;;;;;5074587;28;20444;-66
2022/11/03 05:18:37;;;;;;;7.93;3.23;;;;;;;;;;5074414;28;20452;-67
2022/11/03 05:21:05;;;;;;;5.80;2.60;;;;;;;;;;5074519;28;20437;-66
2022/11/03 05:23:35;;;;;;;12.52;3.42;;;;;;;;;;5074852;28;20527;-66
2022/11/03 05:26:03;;;;;;;9.83;2.93;;;;;;;;;;5074413;28;20271;-66
2022/11/03 05:28:32;;;;;;;14.10;4.27;;;;;;;;;;5074538;28;20797;-66
2022/11/03 05:31:01;;;;;;;10.30;3.30;;;;;;;;;;5074261;28;20444;-67
2022/11/03 05:33:30;;;;;;;11.00;3.30;;;;;;;;;;5074375;28;20450;-66
2022/11/03 05:35:58;;;;;;;6.73;3.20;;;;;;;;;;5073934;28;20972;-66
2022/11/03 05:38:26;;;;;;;9.40;3.37;;;;;;;;;;5074018;28;20444;-67
2022/11/03 05:40:54;;;;;;;10.77;4.10;;;;;;;;;;5074115;28;20446;-66
2022/11/03 05:43:22;;;;;;;7.50;3.57;;;;;;;;;;5073917;28;20486;-66
2022/11/03 05:45:51;;;;;;;12.57;4.17;;;;;;;;;;5074040;28;20443;-66
2022/11/03 05:48:23;;;;;;;11.23;3.87;;;;;;;;;;5073872;28;20463;-68
2022/11/03 05:50:50;;;;;;;6.10;3.20;;;;;;;;;;5074386;28;20564;-67
2022/11/03 05:53:27;;;;;;;10.03;4.20;;;;;;;;;;5074306;28;20882;-66
2022/11/03 05:55:55;;;;;;;4.97;2.60;;;;;;;;;;5073979;28;20445;-67
2022/11/03 05:58:24;;;;;;;5.50;2.77;;;;;;;;;;5073798;28;20466;-66
2022/11/03 06:00:52;;;;;;;7.40;3.30;;;;;;;;;;5073472;28;20437;-67
2022/11/03 06:03:24;;;;;;;9.20;2.57;;;;;;;;;;5073531;28;20484;-67
2022/11/03 06:05:51;;;;;;;10.80;2.73;;;;;;;;;;5073787;28;20936;-67
2022/11/03 06:08:20;;;;;;;10.50;2.90;;;;;;;;;;5074220;28;20471;-67
2022/11/03 06:10:49;;;;;;;9.23;2.97;;;;;;;;;;5073694;28;20459;-70
2022/11/03 06:13:19;;;;;;;10.07;3.70;;;;;;;;;;5074027;28;20444;-67
2022/11/03 06:15:46;;;;;;;5.63;2.90;;;;;;;;;;5073580;28;20442;-66
2022/11/03 06:18:16;;;;;;;8.50;2.83;;;;;;;;;;5073221;28;20449;-67
2022/11/03 06:20:50;;;;;;;11.30;4.87;;;;;;;;;;5074147;28;20439;-66
2022/11/03 06:23:19;;;;;;;8.83;2.70;;;;;;;;;;5072635;28;20518;-67
2022/11/03 06:25:46;;;;;;;11.00;3.47;;;;;;;;;;5073602;28;20429;-67
2022/11/03 06:28:17;;;;;;;12.07;2.93;;;;;;;;;;5073603;28;20531;-67
2022/11/03 06:30:44;;;;;;;12.37;3.20;;;;;;;;;;5073557;28;20443;-67
2022/11/03 06:33:15;;;;;;;6.10;3.20;;;;;;;;;;5073714;28;20449;-67
2022/11/03 06:35:42;;;;;;;6.63;3.00;;;;;;;;;;5073949;28;20767;-67
2022/11/03 06:38:15;;;;;;;10.73;3.73;;;;;;;;;;5073427;28;20456;-67
2022/11/03 06:40:44;;;;;;;8.00;3.17;;;;;;;;;;5074313;28;20834;-67
2022/11/03 06:43:15;;;;;;;11.70;3.37;;;;;;;;;;5073314;28;20481;-66
2022/11/03 06:45:48;;;;;;;8.57;5.27;;;;;;;;;;5073397;28;20428;-67
2022/11/03 06:48:21;;;;;;;6.23;2.57;;;;;;;;;;5073054;28;20472;-66
2022/11/03 06:50:48;;;;;;;8.70;3.47;;;;;;;;;;5073287;28;20438;-67
2022/11/03 06:53:20;;;;;;;12.97;3.83;;;;;;;;;;5073086;28;20453;-67
2022/11/03 06:55:49;;;;;;;9.73;3.43;;;;;;;;;;5072881;28;20432;-67
2022/11/03 06:58:18;;;;;;;17.60;3.50;;;;;;;;;;5073146;28;20973;-66
2022/11/03 07:00:48;;;;;;;12.10;3.60;;;;;;;;;;5072945;28;20454;-67
2022/11/03 07:03:20;;;;;;;9.83;3.03;;;;;;;;;;5073066;28;20486;-67
2022/11/03 07:05:51;;;;;;;13.27;4.63;;;;;;;;;;5073095;28;20472;-67
2022/11/03 07:08:23;;;;;;;10.53;3.80;;;;;;;;;;5074034;28;20507;-67
2022/11/03 07:10:51;;;;;;;9.77;4.10;;;;;;;;;;5073277;28;20433;-67
2022/11/03 07:13:20;;;;;;;6.87;3.60;;;;;;;;;;5072973;28;20448;-66
2022/11/03 07:15:47;;;;;;;18.30;4.30;;;;;;;;;;5072765;28;20965;-67
2022/11/03 07:18:18;;;;;;;17.67;5.70;;;;;;;;;;5072953;28;20801;-66
2022/11/03 07:20:46;;;;;;;13.13;5.30;;;;;;;;;;5072826;28;20424;-66
2022/11/03 07:23:15;;;;;;;8.57;3.33;;;;;;;;;;5072559;28;20492;-67
2022/11/03 07:25:45;;;;;;;8.03;3.23;;;;;;;;;;5073104;28;20440;-66
2022/11/03 07:28:12;;;;;;;10.87;4.87;;;;;;;;;;5072667;28;20938;-67
2022/11/03 07:30:39;;;;;;;9.13;3.17;;;;;;;;;;5072836;28;20475;-67
2022/11/03 07:33:13;;;;;;;6.43;3.83;;;;;;;;;;5072551;28;20440;-66
2022/11/03 07:35:42;;;;;;;5.43;2.80;;;;;;;;;;5076258;28;20439;-67
2022/11/03 07:38:11;;;;;;;10.13;3.47;;;;;;;;;;5076236;28;20436;-67
2022/11/03 07:40:39;;;;;;;11.30;3.50;;;;;;;;;;5076973;28;20437;-66
2022/11/03 07:43:13;;;;;;;7.73;3.50;;;;;;;;;;5076047;28;20480;-66
2022/11/03 07:45:41;;;;;;;6.73;3.93;;;;;;;;;;5077332;28;20431;-67
2022/11/03 07:48:15;;;;;;;21.00;4.00;;;;;;;;;;5076154;28;20941;-67
2022/11/03 07:50:43;;;;;;;12.00;4.30;;;;;;;;;;5077270;28;20451;-67
2022/11/03 07:53:12;;;;;;;8.73;3.97;;;;;;;;;;5076251;28;20498;-67
2022/11/03 07:55:39;;;;;;;11.40;3.50;;;;;;;;;;5076562;28;20441;-67
2022/11/03 07:58:19;;;;;;;11.93;4.00;;;;;;;;;;5076186;28;20452;-67
2022/11/03 08:00:46;;;;;;;14.30;3.63;;;;;;;;;;5076487;28;20445;-66
2022/11/03 08:03:23;;;;;;;12.90;3.80;;;;;;;;;;5075706;28;20494;-66
2022/11/03 08:05:50;;;;;;;8.00;3.53;;;;;;;;;;5076244;28;20437;-66
2022/11/03 08:08:17;;;;;;;6.47;2.80;;;;;;;;;;5075712;28;20445;-66
2022/11/03 08:10:44;;;;;;;10.57;3.53;;;;;;;;;;5075773;28;20934;-66
2022/11/03 08:13:11;;;;;;;16.03;3.70;;;;;;;;;;5075961;28;20523;-66
2022/11/03 08:15:40;;;;;;;7.30;3.43;;;;;;;;;;5076739;28;20441;-67
2022/11/03 08:18:07;;;;;;;13.80;3.90;;;;;;;;;;5075955;28;20527;-67
2022/11/03 08:20:34;;;;;;;4.83;4.37;;;;;;;;;;5076043;28;20446;-66
2022/11/03 08:23:02;;;;;;;14.23;4.03;;;;;;;;;;5075606;28;20498;-66
2022/11/03 08:25:29;;;;;;;12.93;3.70;;;;;;;;;;5076141;28;20422;-66
2022/11/03 08:27:56;;;;;;;14.40;4.37;;;;;;;;;;5075681;28;20534;-67
2022/11/03 08:30:23;;;;;;;14.40;4.20;;;;;;;;;;5075729;28;20442;-67
2022/11/03 08:32:52;;;;;;;9.90;3.10;;;;;;;;;;5075648;28;20441;-66
2022/11/03 08:35:19;;;;;;;9.13;3.27;;;;;;;;;;5075589;28;20441;-66
2022/11/03 08:37:46;;;;;;;7.57;3.63;;;;;;;;;;5075118;28;20448;-66
2022/11/03 08:40:13;;;;;;;8.90;3.10;;;;;;;;;;5075532;28;20635;-67
2022/11/03 08:42:41;;;;;;;8.90;3.43;;;;;;;;;;5075055;28;20943;-67
2022/11/03 08:45:08;;;;;;;11.53;3.17;;;;;;;;;;5075383;28;20526;-66
2022/11/03 08:47:35;;;;;;;9.23;3.17;;;;;;;;;;5074170;28;20946;-66
2022/11/03 08:50:04;;;;;;;8.20;2.93;;;;;;;;;;5075345;28;20531;-67
2022/11/03 08:52:31;;;;;;;6.93;3.13;;;;;;;;;;5075248;28;20579;-66
2022/11/03 08:54:59;;;;;;;7.50;3.50;;;;;;;;;;5075209;28;20503;-66
2022/11/03 08:57:26;;;;;;;9.23;3.00;;;;;;;;;;5075111;28;20447;-67
2022/11/03 08:59:54;;;;;;;13.10;5.63;;;;;;;;;;5074790;28;20489;-66
2022/11/03 09:02:22;;;;;;;14.60;3.13;;;;;;;;;;5075168;28;20508;-67
2022/11/03 09:04:49;;;;;;;9.00;3.40;;;;;;;;;;5074156;28;21012;-66
2022/11/03 09:07:17;;;;;;;7.70;3.47;;;;;;;;;;5074407;28;20455;-67
2022/11/03 09:09:45;;;;;;;7.07;3.17;;;;;;;;;;5074875;28;20442;-67
2022/11/03 09:12:18;;;;;;;7.93;2.70;;;;;;;;;;5075335;28;20447;-67
2022/11/03 09:14:50;;;;;;;9.70;3.00;;;;;;;;;;5074429;28;20436;-66
2022/11/03 09:17:17;;;;;;;11.03;3.20;;;;;;;;;;5074560;28;20435;-66
2022/11/03 09:19:44;;;;;;;10.40;3.10;;;;;;;;;;5074400;28;21011;-67
2022/11/03 09:22:11;;;;;;;8.20;2.90;;;;;;;;;;5074653;28;20449;-67
2022/11/03 09:24:40;;;;;;;8.90;2.70;;;;;;;;;;5074825;28;20485;-67
2022/11/03 09:27:07;;;;;;;14.50;2.80;;;;;;;;;;5074825;28;20525;-67
2022/11/03 09:29:34;;;;;;;5.93;3.40;;;;;;;;;;5074634;28;20449;-66
2022/11/03 09:32:02;;;;;;;8.03;3.03;;;;;;;;;;5074719;28;20473;-67
2022/11/03 09:34:29;;;;;;;9.60;3.47;;;;;;;;;;5074515;28;20450;-67
2022/11/03 09:36:56;;;;;;;6.40;3.20;;;;;;;;;;5074385;28;20450;-66
2022/11/03 09:39:23;;;;;;;8.97;3.40;;;;;;;;;;5074240;28;20539;-66
2022/11/03 09:41:53;;;;;;;12.83;3.67;;;;;;;;;;5074509;28;21042;-66
2022/11/03 09:44:21;;;;;;;7.23;2.70;;;;;;;;;;5074497;28;20504;-67
2022/11/03 09:46:49;;;;;;;8.10;2.90;;;;;;;;;;5074237;28;20442;-67
2022/11/03 09:49:17;;;;;;;15.90;4.67;;;;;;;;;;5074056;28;20453;-66
2022/11/03 09:51:45;;;;;;;8.53;2.93;;;;;;;;;;5074522;28;20496;-66
2022/11/03 09:54:14;;;;;;;6.27;2.60;;;;;;;;;;5074392;28;20928;-66
2022/11/03 09:56:41;;;;;;;10.77;3.10;;;;;;;;;;5074246;28;20448;-67
2022/11/03 09:59:15;;;;;;;8.13;2.83;;;;;;;;;;5073830;28;20497;-66
2022/11/03 10:01:44;;;;;;;11.10;2.80;;;;;;;;;;5074086;28;20769;-67
2022/11/03 10:04:12;;;;;;;6.60;3.67;;;;;;;;;;5073777;28;20557;-66
2022/11/03 10:06:39;;;;;;;11.17;3.30;;;;;;;;;;5073523;28;20538;-67
2022/11/03 10:09:07;;;;;;;9.13;4.13;;;;;;;;;;5073741;28;20523;-67
2022/11/03 10:11:35;;;;;;;8.60;2.53;;;;;;;;;;5073889;28;20438;-67
2022/11/03 10:14:02;;;;;;;8.47;2.30;;;;;;;;;;5073644;28;20441;-67
2022/11/03 10:16:31;;;;;;;5.93;2.90;;;;;;;;;;5073649;28;20448;-66
2022/11/03 10:18:59;;;;;;;7.33;3.10;;;;;;;;;;5073723;28;20815;-66
2022/11/03 10:21:28;;;;;;;5.50;2.77;;;;;;;;;;5073301;28;20443;-67
2022/11/03 10:23:55;;;;;;;11.20;3.30;;;;;;;;;;5073436;28;20499;-66
2022/11/03 10:26:23;;;;;;;6.67;2.23;;;;;;;;;;5073618;28;20560;-67
2022/11/03 10:29:01;;;;;;;9.30;2.93;;;;;;;;;;5073486;28;20446;-67
2022/11/03 10:31:34;;;;;;;6.03;3.40;;;;;;;;;;5073100;28;20470;-67
2022/11/03 10:34:01;;;;;;;10.10;2.83;;;;;;;;;;5073791;28;20433;-66
2022/11/03 10:36:29;;;;;;;8.77;2.80;;;;;;;;;;5074055;28;20450;-67
2022/11/03 10:38:56;;;;;;;4.63;2.40;;;;;;;;;;5073412;28;20449;-67
2022/11/03 10:41:24;;;;;;;5.47;2.40;;;;;;;;;;5073547;28;20474;-67
2022/11/03 10:44:03;;;;;;;7.97;2.60;;;;;;;;;;5073276;28;20479;-67
2022/11/03 10:46:30;;;;;;;8.20;2.40;;;;;;;;;;5073344;28;20483;-66
2022/11/03 10:49:04;;;;;;;5.90;3.23;;;;;;;;;;5073475;28;20450;-67
2022/11/03 10:51:32;;;;;;;6.60;2.50;;;;;;;;;;5073209;28;20435;-67
2022/11/03 10:53:59;;;;;;;8.30;3.07;;;;;;;;;;5072810;28;20467;-67
2022/11/03 10:56:26;;;;;;;10.67;2.93;;;;;;;;;;5073319;28;20441;-67
2022/11/03 10:58:54;;;;;;;6.37;2.53;;;;;;;;;;5072809;28;20450;-66
2022/11/03 11:01:21;;;;;;;9.47;3.63;;;;;;;;;;5072895;28;20445;-66
2022/11/03 11:03:48;;;;;;;12.17;3.50;;;;;;;;;;5073055;28;20509;-66
2022/11/03 11:06:20;;;;;;;8.93;3.27;;;;;;;;;;5072995;28;20530;-67
2022/11/03 11:08:47;;;;;;;6.53;2.90;;;;;;;;;;5073696;28;20460;-67
2022/11/03 11:11:16;;;;;;;6.57;2.27;;;;;;;;;;5076968;28;20539;-67
2022/11/03 11:13:44;;;;;;;9.53;2.70;;;;;;;;;;5077493;28;20801;-66
2022/11/03 11:16:26;;;;;;;6.33;2.80;;;;;;;;;;5077025;28;20446;-66
2022/11/03 11:19:11;;;;;;;7.40;3.30;;;;;;;;;;5076720;28;20882;-66
2022/11/03 11:22:00;;;;;;;8.47;3.50;;;;;;;;;;5076807;28;20441;-67
2022/11/03 11:24:46;;;;;;;10.37;3.40;;;;;;;;;;5076984;28;20521;-67
2022/11/03 11:27:30;;;;;;;16.00;3.87;;;;;;;;;;5076846;28;20442;-66
2022/11/03 11:29:57;;;;;;;6.93;2.77;;;;;;;;;;5076389;28;20489;-66
2022/11/03 11:32:52;;;;;;;7.80;2.73;;;;;;;;;;5076827;28;20475;-66
2022/11/03 11:35:37;;;;;;;11.70;2.93;;;;;;;;;;5077079;28;20438;-66
2022/11/03 11:38:23;;;;;;;8.07;2.80;;;;;;;;;;5076378;28;20447;-66
2022/11/03 11:40:52;;;;;;;9.00;2.70;;;;;;;;;;5076573;28;20450;-67
2022/11/03 11:43:28;;;;;;;7.00;4.17;;;;;;;;;;5076837;28;20517;-67
2022/11/03 11:46:14;;;;;;;8.07;3.50;;;;;;;;;;5076735;28;20447;-67
2022/11/03 11:48:42;;;;;;;8.60;3.43;;;;;;;;;;5076823;28;20537;-67
2022/11/03 11:51:10;;;;;;;18.87;4.07;;;;;;;;;;5076376;28;20444;-67
2022/11/03 11:53:38;;;;;;;6.00;3.80;;;;;;;;;;5076958;28;20492;-67
2022/11/03 11:56:09;;;;;;;11.97;3.60;;;;;;;;;;5076065;28;20447;-66
2022/11/03 11:58:39;;;;;;;7.60;3.20;;;;;;;;;;5076482;28;20462;-68
2022/11/03 12:01:20;;;;;;;13.63;3.10;;;;;;;;;;5076279;28;20779;-67
2022/11/03 12:03:48;;;;;;;7.17;2.87;;;;;;;;;;5076442;28;20509;-66
2022/11/03 12:06:15;;;;;;;5.20;2.80;;;;;;;;;;5076071;28;20447;-67
2022/11/03 12:08:43;;;;;;;7.30;2.40;;;;;;;;;;5076427;28;20799;-67
2022/11/03 12:11:14;;;;;;;13.77;2.70;;;;;;;;;;5076164;28;20550;-67
2022/11/03 12:13:43;;;;;;;10.23;3.43;;;;;;;;;;5077014;28;20772;-67
2022/11/03 12:16:11;;;;;;;6.73;3.37;;;;;;;;;;5076005;28;20940;-66
2022/11/03 12:18:39;;;;;;;17.53;3.97;;;;;;;;;;5076655;28;20536;-67
2022/11/03 12:21:07;;;;;;;6.17;3.23;;;;;;;;;;5074401;28;20530;-67
2022/11/03 12:23:35;;;;;;;14.80;4.30;;;;;;;;;;5075465;28;20565;-67
2022/11/03 12:26:04;;;;;;;12.07;3.13;;;;;;;;;;5075590;28;20447;-68
2022/11/03 12:28:33;;;;;;;8.37;3.20;;;;;;;;;;5075969;28;20439;-67
2022/11/03 12:31:00;;;;;;;10.63;2.87;;;;;;;;;;5075858;28;20859;-67
2022/11/03 12:33:28;;;;;;;8.87;2.63;;;;;;;;;;5075584;28;20533;-67
2022/11/03 12:35:55;;;;;;;8.47;2.80;;;;;;;;;;5075583;28;20446;-67
2022/11/03 12:38:22;;;;;;;8.60;2.87;;;;;;;;;;5075624;28;20474;-67
2022/11/03 12:40:50;;;;;;;7.47;2.97;;;;;;;;;;5075197;28;20444;-67
2022/11/03 12:43:17;;;;;;;5.27;2.70;;;;;;;;;;5075486;28;20445;-67
2022/11/03 12:45:45;;;;;;;7.60;2.70;;;;;;;;;;5075161;28;20508;-67
2022/11/03 12:48:13;;;;;;;6.67;3.53;;;;;;;;;;5075170;28;20471;-67
2022/11/03 12:50:40;;;;;;;8.47;3.13;;;;;;;;;;5075620;28;20943;-67
2022/11/03 12:53:08;;;;;;;8.17;2.43;;;;;;;;;;5075534;28;20455;-67
2022/11/03 12:55:35;;;;;;;4.10;2.50;;;;;;;;;;5075199;28;20535;-67
2022/11/03 12:58:03;;;;;;;10.87;2.83;;;;;;;;;;5075303;28;20446;-67
2022/11/03 13:00:30;;;;;;;9.50;3.03;;;;;;;;;;5075235;28;20949;-67
2022/11/03 13:02:58;;;;;;;13.47;3.70;;;;;;;;;;5075192;28;20538;-67
2022/11/03 13:05:25;;;;;;;7.13;2.60;;;;;;;;;;5075393;28;20475;-68
2022/11/03 13:07:53;;;;;;;8.63;3.30;;;;;;;;;;5075049;28;20440;-67
2022/11/03 13:10:20;;;;;;;8.77;2.50;;;;;;;;;;5075096;28;20442;-67
2022/11/03 13:12:47;;;;;;;4.53;2.53;;;;;;;;;;5074888;28;20441;-67
2022/11/03 13:15:15;;;;;;;8.83;2.77;;;;;;;;;;5075129;28;20541;-67
2022/11/03 13:17:43;;;;;;;8.00;3.63;;;;;;;;;;5074702;28;20450;-67
2022/11/03 13:20:14;;;;;;;5.50;3.47;;;;;;;;;;5074865;28;20486;-66
2022/11/03 13:22:42;;;;;;;5.63;2.83;;;;;;;;;;5074646;28;20570;-67
2022/11/03 13:25:09;;;;;;;2.80;1.97;;;;;;;;;;5074736;28;20547;-67
2022/11/03 13:27:36;;;;;;;11.50;3.17;;;;;;;;;;5074213;28;20458;-67
2022/11/03 13:30:04;;;;;;;12.30;2.37;;;;;;;;;;5074603;28;20798;-68
2022/11/03 13:32:31;;;;;;;38.97;18.27;;;;;;;;;;5073989;28;20441;-67
2022/11/03 13:34:59;;;;;;;18.20;7.13;;;;;;;;;;5074498;28;20528;-67
2022/11/03 13:37:27;;;;;;;9.40;3.40;;;;;;;;;;5073994;28;20537;-67
2022/11/03 13:39:54;;;;;;;8.27;3.90;;;;;;;;;;5074864;28;20531;-67
2022/11/03 13:42:22;;;;;;;9.53;3.50;;;;;;;;;;5073782;28;20488;-66
2022/11/03 13:44:49;;;;;;;5.80;2.57;;;;;;;;;;5074013;28;21001;-67
2022/11/03 13:47:16;;;;;;;4.93;2.33;;;;;;;;;;5074114;28;20446;-67
2022/11/03 13:49:43;;;;;;;9.70;5.93;;;;;;;;;;5074046;28;20442;-67
2022/11/03 13:52:11;;;;;;;7.53;3.20;;;;;;;;;;5074029;28;20821;-67
2022/11/03 13:54:39;;;;;;;7.80;3.60;;;;;;;;;;5073971;28;20490;-66
2022/11/03 13:57:07;;;;;;;15.03;5.10;;;;;;;;;;5068294;28;20534;-66
2022/11/03 13:59:34;;;;;;;5.97;2.97;;;;;;;;;;5053188;28;20478;-66
2022/11/03 14:02:01;;;;;;;6.57;2.83;;;;;;;;;;5052833;28;20482;-66
2022/11/03 14:04:28;;;;;;;10.00;2.20;;;;;;;;;;5053261;28;21007;-66
2022/11/03 14:06:56;;;;;;;7.73;2.80;;;;;;;;;;5054005;28;20513;-66
2022/11/03 14:09:23;;;;;;;5.50;2.87;;;;;;;;;;5053846;28;20445;-65
2022/11/03 14:14:38;;;;;;;5.67;2.43;;;;;;;;;;5053913;28;20838;-65
2022/11/03 14:17:05;;;;;;;6.50;2.63;;;;;;;;;;5053337;28;20448;-66
2022/11/03 14:19:32;;;;;;;4.20;2.33;;;;;;;;;;5070595;28;20832;-66
2022/11/03 14:22:00;;;;;;;9.23;2.67;;;;;;;;;;5073208;28;20447;-66
2022/11/03 14:24:27;;;;;;;7.40;2.53;;;;;;;;;;5073291;28;20498;-66
2022/11/03 14:26:55;;;;;;;6.10;2.50;;;;;;;;;;5073299;28;20500;-66
2022/11/03 14:29:23;;;;;;;8.00;2.87;;;;;;;;;;5073094;28;20442;-66
2022/11/03 14:31:50;;;;;;;4.67;3.77;;;;;;;;;;5073203;28;20442;-66
2022/11/03 14:34:17;;;;;;;6.90;2.63;;;;;;;;;;5073046;28;20476;-66
2022/11/03 14:36:44;;;;;;;5.50;2.57;;;;;;;;;;5073271;28;20555;-66
2022/11/03 14:39:11;;;;;;;5.30;2.37;;;;;;;;;;5073273;28;20530;-66
2022/11/03 14:44:25;;;;;;;13.23;3.63;;;;;;;;;;5072333;28;20522;-66
2022/11/03 14:46:52;;;;;;;5.17;2.77;;;;;;;;;;5073300;28;20725;-66
2022/11/03 14:49:19;;;;;;;8.37;3.87;;;;;;;;;;5072652;28;20443;-66
2022/11/03 14:51:46;;;;;;;6.30;2.33;;;;;;;;;;5074020;28;20479;-66
2022/11/03 14:54:14;;;;;;;8.80;3.00;;;;;;;;;;5072598;28;20454;-67
2022/11/03 14:56:41;;;;;;;6.97;2.50;;;;;;;;;;5072644;28;20541;-65
2022/11/03 14:59:08;;;;;;;7.93;3.23;;;;;;;;;;5073118;28;20466;-66
2022/11/03 15:01:37;;;;;;;3.00;2.20;;;;;;;;;;5073302;28;20534;-66
2022/11/03 15:04:05;;;;;;;5.10;2.57;;;;;;;;;;5073154;28;20450;-66
2022/11/03 15:06:32;;;;;;;10.10;2.60;;;;;;;;;;5072723;28;20484;-65
2022/11/03 15:09:00;;;;;;;4.87;2.57;;;;;;;;;;5073075;28;20444;-66
2022/11/03 15:11:27;;;;;;;5.57;3.00;;;;;;;;;;5072825;28;20964;-66